Check out our new PWSWeather beta!
PWSweather.com
Personal Weather Stations
Station Observations
WD4JKH
Forsyth, GA 31029

Forsyth, GA 31029

Lat: 33.033225, Lon: -83.927995

Elevation: 709

Station Type: Davis Vantage VUE

High Low Average
Temperature 58.9°F14.9°C 43.3°F6.3°C 52.5°F11.4°C
Dew Point 57.1°F13.9°C 26.9°F-2.8°C 44.9°F7.2°C
Winds 8.9 mph 14.3 kmh Calm Calm 4.0 mph S6.4 kmh S
Wind Gusts 18.0 mph29.0 kmh 2.0 mph3.2 kmh 10.0 mph16.1 kmh
Humidity 96% 48% 76%
Pressure 30.54 in1034.2 mb 30.09 in1019.0 mb -
Precipitation 0.01 in0.3 mm - -
Hour Temp Dew Point Humidity Winds Wind Gusts Pressure Precip Precip Rate Daily Precip Total
12:04 AM 45.5°F7.5°C 27.4°F-2.6°C 49% 3.8 mph E6.1 kmh E 11.0 mph17.7 kmh 30.54 in1034.2 mb 0.00 in0.0 mm 0.00 in0.0 mm 0.00 in0.0 mm
12:09 AM 45.5°F7.5°C 26.9°F-2.8°C 48% 6.0 mph E9.7 kmh E 11.0 mph17.7 kmh 30.54 in1034.2 mb 0.00 in0.0 mm 0.00 in0.0 mm 0.00 in0.0 mm
12:14 AM 45.6°F7.6°C 27.0°F-2.8°C 48% 5.5 mph E8.9 kmh E 11.0 mph17.7 kmh 30.53 in1033.9 mb 0.00 in0.0 mm 0.00 in0.0 mm 0.00 in0.0 mm
12:19 AM 45.6°F7.6°C 27.0°F-2.8°C 48% 8.5 mph E13.7 kmh E 13.0 mph20.9 kmh 30.53 in1033.9 mb 0.00 in0.0 mm 0.00 in0.0 mm 0.00 in0.0 mm
12:24 AM 45.6°F7.6°C 27.0°F-2.8°C 48% 3.9 mph E6.3 kmh E 13.0 mph20.9 kmh 30.53 in1033.9 mb 0.00 in0.0 mm 0.00 in0.0 mm 0.00 in0.0 mm
12:29 AM 45.6°F7.6°C 27.5°F-2.5°C 49% 2.6 mph ESE4.2 kmh ESE 13.0 mph20.9 kmh 30.53 in1033.9 mb 0.00 in0.0 mm 0.00 in0.0 mm 0.00 in0.0 mm
12:34 AM 45.6°F7.6°C 27.5°F-2.5°C 49% 6.4 mph E10.3 kmh E 13.0 mph20.9 kmh 30.53 in1033.9 mb 0.00 in0.0 mm 0.00 in0.0 mm 0.00 in0.0 mm
12:39 AM 45.5°F7.5°C 27.9°F-2.3°C 50% 2.6 mph E4.2 kmh E 12.0 mph19.3 kmh 30.52 in1033.5 mb 0.00 in0.0 mm 0.00 in0.0 mm 0.00 in0.0 mm
12:44 AM 45.5°F7.5°C 27.9°F-2.3°C 50% 5.7 mph E9.2 kmh E 12.0 mph19.3 kmh 30.52 in1033.5 mb 0.00 in0.0 mm 0.00 in0.0 mm 0.00 in0.0 mm
12:49 AM 45.5°F7.5°C 27.9°F-2.3°C 50% 3.2 mph E5.1 kmh E 12.0 mph19.3 kmh 30.52 in1033.5 mb 0.00 in0.0 mm 0.00 in0.0 mm 0.00 in0.0 mm
12:54 AM 45.5°F7.5°C 28.4°F-2.0°C 51% 3.5 mph E5.6 kmh E 12.0 mph19.3 kmh 30.51 in1033.2 mb 0.00 in0.0 mm 0.00 in0.0 mm 0.00 in0.0 mm
12:59 AM 45.4°F7.4°C 28.8°F-1.8°C 52% 4.8 mph E7.7 kmh E 12.0 mph19.3 kmh 30.51 in1033.2 mb 0.00 in0.0 mm 0.00 in0.0 mm 0.00 in0.0 mm
01:04 AM 45.3°F7.4°C 28.7°F-1.8°C 52% 5.7 mph E9.2 kmh E 11.0 mph17.7 kmh 30.51 in1033.2 mb 0.00 in0.0 mm 0.00 in0.0 mm 0.00 in0.0 mm
01:10 AM 45.3°F7.4°C 29.2°F-1.6°C 53% 4.9 mph E7.9 kmh E 11.0 mph17.7 kmh 30.51 in1033.2 mb 0.00 in0.0 mm 0.00 in0.0 mm 0.00 in0.0 mm
01:14 AM 45.3°F7.4°C 29.2°F-1.6°C 53% 3.7 mph E6.0 kmh E 11.0 mph17.7 kmh 30.51 in1033.2 mb 0.00 in0.0 mm 0.00 in0.0 mm 0.00 in0.0 mm
01:19 AM 45.3°F7.4°C 29.2°F-1.6°C 53% 5.7 mph E9.2 kmh E 11.0 mph17.7 kmh 30.51 in1033.2 mb 0.00 in0.0 mm 0.00 in0.0 mm 0.00 in0.0 mm
01:25 AM 45.3°F7.4°C 29.6°F-1.3°C 54% 3.7 mph E6.0 kmh E 11.0 mph17.7 kmh 30.51 in1033.2 mb 0.00 in0.0 mm 0.00 in0.0 mm 0.00 in0.0 mm
01:30 AM 45.3°F7.4°C 29.6°F-1.3°C 54% 4.5 mph E7.2 kmh E 11.0 mph17.7 kmh 30.51 in1033.2 mb 0.00 in0.0 mm 0.00 in0.0 mm 0.00 in0.0 mm
01:35 AM 45.3°F7.4°C 30.1°F-1.1°C 55% 5.3 mph E8.5 kmh E 11.0 mph17.7 kmh 30.51 in1033.2 mb 0.00 in0.0 mm 0.00 in0.0 mm 0.00 in0.0 mm
01:40 AM 45.2°F7.3°C 30.0°F-1.1°C 55% 3.4 mph E5.5 kmh E 11.0 mph17.7 kmh 30.51 in1033.2 mb 0.00 in0.0 mm 0.00 in0.0 mm 0.00 in0.0 mm
01:45 AM 45.2°F7.3°C 30.0°F-1.1°C 55% 3.3 mph E5.3 kmh E 11.0 mph17.7 kmh 30.51 in1033.2 mb 0.00 in0.0 mm 0.00 in0.0 mm 0.00 in0.0 mm
01:50 AM 45.2°F7.3°C 30.4°F-0.9°C 56% 5.8 mph E9.3 kmh E 11.0 mph17.7 kmh 30.50 in1032.8 mb 0.00 in0.0 mm 0.00 in0.0 mm 0.00 in0.0 mm
01:55 AM 45.2°F7.3°C 30.5°F-0.8°C 56% 4.2 mph E6.8 kmh E 11.0 mph17.7 kmh 30.51 in1033.2 mb 0.00 in0.0 mm 0.00 in0.0 mm 0.00 in0.0 mm
02:00 AM 45.3°F7.4°C 31.0°F-0.6°C 57% 4.3 mph ENE6.9 kmh ENE 10.0 mph16.1 kmh 30.51 in1033.2 mb 0.00 in0.0 mm 0.00 in0.0 mm 0.00 in0.0 mm
02:05 AM 45.3°F7.4°C 31.0°F-0.6°C 57% 5.6 mph E9.0 kmh E 12.0 mph19.3 kmh 30.51 in1033.2 mb 0.00 in0.0 mm 0.00 in0.0 mm 0.00 in0.0 mm
02:10 AM 45.2°F7.3°C 30.9°F-0.6°C 57% 7.7 mph E12.4 kmh E 12.0 mph19.3 kmh 30.51 in1033.2 mb 0.00 in0.0 mm 0.00 in0.0 mm 0.00 in0.0 mm
02:15 AM 45.2°F7.3°C 30.9°F-0.6°C 57% 5.3 mph ENE8.5 kmh ENE 12.0 mph19.3 kmh 30.51 in1033.2 mb 0.00 in0.0 mm 0.00 in0.0 mm 0.00 in0.0 mm
02:20 AM 45.2°F7.3°C 31.4°F-0.3°C 58% 5.9 mph E9.5 kmh E 12.0 mph19.3 kmh 30.51 in1033.2 mb 0.00 in0.0 mm 0.00 in0.0 mm 0.00 in0.0 mm
02:25 AM 45.2°F7.3°C 31.3°F-0.4°C 58% 4.2 mph E6.8 kmh E 11.0 mph17.7 kmh 30.51 in1033.2 mb 0.00 in0.0 mm 0.00 in0.0 mm 0.00 in0.0 mm
02:30 AM 45.2°F7.3°C 31.8°F-0.1°C 59% 5.5 mph E8.9 kmh E 12.0 mph19.3 kmh 30.51 in1033.2 mb 0.00 in0.0 mm 0.00 in0.0 mm 0.00 in0.0 mm
02:35 AM 45.2°F7.3°C 31.8°F-0.1°C 59% 4.7 mph E7.6 kmh E 12.0 mph19.3 kmh 30.51 in1033.2 mb 0.00 in0.0 mm 0.00 in0.0 mm 0.00 in0.0 mm
02:40 AM 45.2°F7.3°C 31.8°F-0.1°C 59% 4.9 mph E7.9 kmh E 12.0 mph19.3 kmh 30.51 in1033.2 mb 0.00 in0.0 mm 0.00 in0.0 mm 0.00 in0.0 mm
02:45 AM 45.2°F7.3°C 32.2°F0.1°C 60% 6.7 mph E10.8 kmh E 12.0 mph19.3 kmh 30.51 in1033.2 mb 0.00 in0.0 mm 0.00 in0.0 mm 0.00 in0.0 mm
02:50 AM 45.2°F7.3°C 32.6°F0.3°C 61% 3.5 mph E5.6 kmh E 10.0 mph16.1 kmh 30.51 in1033.2 mb 0.00 in0.0 mm 0.00 in0.0 mm 0.00 in0.0 mm
02:55 AM 45.2°F7.3°C 32.2°F0.1°C 60% 4.6 mph E7.4 kmh E 11.0 mph17.7 kmh 30.50 in1032.8 mb 0.00 in0.0 mm 0.00 in0.0 mm 0.00 in0.0 mm
03:00 AM 45.1°F7.3°C 32.1°F0.1°C 60% 7.1 mph E11.4 kmh E 13.0 mph20.9 kmh 30.50 in1032.8 mb 0.00 in0.0 mm 0.00 in0.0 mm 0.00 in0.0 mm
03:05 AM 45.1°F7.3°C 32.5°F0.3°C 61% 5.7 mph E9.2 kmh E 14.0 mph22.5 kmh 30.50 in1032.8 mb 0.00 in0.0 mm 0.00 in0.0 mm 0.00 in0.0 mm
03:10 AM 45.0°F7.2°C 32.4°F0.2°C 61% 4.6 mph E7.4 kmh E 14.0 mph22.5 kmh 30.50 in1032.8 mb 0.00 in0.0 mm 0.00 in0.0 mm 0.00 in0.0 mm
03:15 AM 44.9°F7.2°C 31.9°F-0.1°C 60% 5.7 mph E9.2 kmh E 14.0 mph22.5 kmh 30.50 in1032.8 mb 0.00 in0.0 mm 0.00 in0.0 mm 0.00 in0.0 mm
03:20 AM 44.8°F7.1°C 32.2°F0.1°C 61% 3.9 mph E6.3 kmh E 14.0 mph22.5 kmh 30.50 in1032.8 mb 0.00 in0.0 mm 0.00 in0.0 mm 0.00 in0.0 mm
03:25 AM 44.8°F7.1°C 31.8°F-0.1°C 60% 6.1 mph E9.8 kmh E 13.0 mph20.9 kmh 30.50 in1032.8 mb 0.00 in0.0 mm 0.00 in0.0 mm 0.00 in0.0 mm
03:30 AM 44.8°F7.1°C 31.8°F-0.1°C 60% 5.1 mph E8.2 kmh E 13.0 mph20.9 kmh 30.49 in1032.5 mb 0.00 in0.0 mm 0.00 in0.0 mm 0.00 in0.0 mm
03:35 AM 44.7°F7.1°C 31.7°F-0.2°C 60% 6.4 mph E10.3 kmh E 13.0 mph20.9 kmh 30.49 in1032.5 mb 0.00 in0.0 mm 0.00 in0.0 mm 0.00 in0.0 mm
03:40 AM 43.3°F6.3°C 29.6°F-1.3°C 58% 8.9 mph E14.3 kmh E 15.0 mph24.1 kmh 30.49 in1032.5 mb 0.00 in0.0 mm 0.00 in0.0 mm 0.00 in0.0 mm
03:45 AM 43.3°F6.3°C 29.6°F-1.3°C 58% 5.0 mph ENE8.0 kmh ENE 15.0 mph24.1 kmh 30.48 in1032.2 mb 0.00 in0.0 mm 0.00 in0.0 mm 0.00 in0.0 mm
03:50 AM 43.3°F6.3°C 29.6°F-1.3°C 58% 5.0 mph ENE8.0 kmh ENE 15.0 mph24.1 kmh 30.47 in1031.8 mb 0.00 in0.0 mm 0.00 in0.0 mm 0.00 in0.0 mm
08:55 AM 43.5°F6.4°C 34.1°F1.2°C 69% 3.8 mph ENE6.1 kmh ENE 7.0 mph11.3 kmh 30.45 in1031.2 mb 0.00 in0.0 mm 0.00 in0.0 mm 0.00 in0.0 mm
09:00 AM 43.4°F6.3°C 34.0°F1.1°C 69% 3.0 mph ENE4.8 kmh ENE 7.0 mph11.3 kmh 30.45 in1031.2 mb 0.00 in0.0 mm 0.00 in0.0 mm 0.00 in0.0 mm
09:05 AM 43.5°F6.4°C 34.1°F1.2°C 69% 4.1 mph ENE6.6 kmh ENE 8.0 mph12.9 kmh 30.45 in1031.2 mb 0.00 in0.0 mm 0.00 in0.0 mm 0.00 in0.0 mm
09:10 AM 43.5°F6.4°C 34.0°F1.1°C 69% 3.6 mph ENE5.8 kmh ENE 8.0 mph12.9 kmh 30.45 in1031.2 mb 0.00 in0.0 mm 0.00 in0.0 mm 0.00 in0.0 mm
09:15 AM 43.5°F6.4°C 34.1°F1.2°C 69% 4.0 mph ENE6.4 kmh ENE 8.0 mph12.9 kmh 30.45 in1031.2 mb 0.00 in0.0 mm 0.00 in0.0 mm 0.00 in0.0 mm
09:20 AM 43.5°F6.4°C 34.1°F1.2°C 69% 2.8 mph E4.5 kmh E 8.0 mph12.9 kmh 30.44 in1030.8 mb 0.00 in0.0 mm 0.00 in0.0 mm 0.00 in0.0 mm
09:25 AM 43.5°F6.4°C 34.1°F1.2°C 69% 4.7 mph E7.6 kmh E 9.0 mph14.5 kmh 30.44 in1030.8 mb 0.00 in0.0 mm 0.00 in0.0 mm 0.00 in0.0 mm
09:30 AM 43.6°F6.4°C 34.5°F1.4°C 70% 4.8 mph E7.7 kmh E 9.0 mph14.5 kmh 30.44 in1030.8 mb 0.00 in0.0 mm 0.00 in0.0 mm 0.00 in0.0 mm
09:35 AM 43.8°F6.6°C 35.1°F1.7°C 71% 2.2 mph ESE3.5 kmh ESE 9.0 mph14.5 kmh 30.43 in1030.5 mb 0.00 in0.0 mm 0.00 in0.0 mm 0.00 in0.0 mm
09:40 AM 43.9°F6.6°C 34.8°F1.6°C 70% 3.5 mph E5.6 kmh E 9.0 mph14.5 kmh 30.42 in1030.1 mb 0.00 in0.0 mm 0.00 in0.0 mm 0.00 in0.0 mm
09:45 AM 43.9°F6.6°C 34.8°F1.6°C 70% 6.8 mph E10.9 kmh E 11.0 mph17.7 kmh 30.42 in1030.1 mb 0.00 in0.0 mm 0.00 in0.0 mm 0.00 in0.0 mm
09:50 AM 43.9°F6.6°C 34.8°F1.6°C 70% 7.1 mph ESE11.4 kmh ESE 12.0 mph19.3 kmh 30.41 in1029.8 mb 0.00 in0.0 mm 0.00 in0.0 mm 0.00 in0.0 mm
09:55 AM 43.9°F6.6°C 34.8°F1.6°C 70% 7.4 mph E11.9 kmh E 12.0 mph19.3 kmh 30.42 in1030.1 mb 0.00 in0.0 mm 0.00 in0.0 mm 0.00 in0.0 mm
10:00 AM 44.0°F6.7°C 34.9°F1.6°C 70% 5.3 mph E8.5 kmh E 12.0 mph19.3 kmh 30.41 in1029.8 mb 0.00 in0.0 mm 0.00 in0.0 mm 0.00 in0.0 mm
10:05 AM 44.2°F6.8°C 35.5°F1.9°C 71% 2.4 mph ESE3.9 kmh ESE 12.0 mph19.3 kmh 30.41 in1029.8 mb 0.00 in0.0 mm 0.00 in0.0 mm 0.00 in0.0 mm
10:10 AM 44.5°F6.9°C 35.4°F1.9°C 70% 2.9 mph ESE4.7 kmh ESE 12.0 mph19.3 kmh 30.41 in1029.8 mb 0.00 in0.0 mm 0.00 in0.0 mm 0.00 in0.0 mm
10:15 AM 44.7°F7.1°C 36.0°F2.2°C 71% 5.3 mph SE8.5 kmh SE 12.0 mph19.3 kmh 30.41 in1029.8 mb 0.00 in0.0 mm 0.00 in0.0 mm 0.00 in0.0 mm
10:20 AM 45.0°F7.2°C 36.2°F2.3°C 71% 1.5 mph ESE2.4 kmh ESE 11.0 mph17.7 kmh 30.41 in1029.8 mb 0.00 in0.0 mm 0.00 in0.0 mm 0.00 in0.0 mm
10:25 AM 45.6°F7.6°C 36.5°F2.5°C 70% 1.7 mph E2.7 kmh E 11.0 mph17.7 kmh 30.41 in1029.8 mb 0.00 in0.0 mm 0.00 in0.0 mm 0.00 in0.0 mm
10:30 AM 46.1°F7.8°C 37.0°F2.8°C 70% 3.3 mph E5.3 kmh E 11.0 mph17.7 kmh 30.41 in1029.8 mb 0.00 in0.0 mm 0.00 in0.0 mm 0.00 in0.0 mm
10:35 AM 45.9°F7.7°C 37.1°F2.8°C 71% 3.1 mph E5.0 kmh E 8.0 mph12.9 kmh 30.41 in1029.8 mb 0.00 in0.0 mm 0.00 in0.0 mm 0.00 in0.0 mm
10:40 AM 46.0°F7.8°C 37.2°F2.9°C 71% 5.5 mph SE8.9 kmh SE 8.0 mph12.9 kmh 30.40 in1029.5 mb 0.00 in0.0 mm 0.00 in0.0 mm 0.00 in0.0 mm
10:45 AM 46.1°F7.8°C 37.3°F2.9°C 71% 3.9 mph ESE6.3 kmh ESE 8.0 mph12.9 kmh 30.39 in1029.1 mb 0.00 in0.0 mm 0.00 in0.0 mm 0.00 in0.0 mm
10:50 AM 46.5°F8.1°C 38.0°F3.3°C 72% 3.2 mph SE5.1 kmh SE 9.0 mph14.5 kmh 30.39 in1029.1 mb 0.00 in0.0 mm 0.00 in0.0 mm 0.00 in0.0 mm
10:55 AM 46.9°F8.3°C 38.3°F3.5°C 72% 4.3 mph SE6.9 kmh SE 9.0 mph14.5 kmh 30.39 in1029.1 mb 0.00 in0.0 mm 0.00 in0.0 mm 0.00 in0.0 mm
11:00 AM 46.9°F8.3°C 38.3°F3.5°C 72% 6.6 mph SE10.6 kmh SE 10.0 mph16.1 kmh 30.40 in1029.5 mb 0.00 in0.0 mm 0.00 in0.0 mm 0.00 in0.0 mm
11:04 AM 47.1°F8.4°C 38.9°F3.8°C 73% 3.6 mph SE5.8 kmh SE 10.0 mph16.1 kmh 30.39 in1029.1 mb 0.00 in0.0 mm 0.00 in0.0 mm 0.00 in0.0 mm
11:09 AM 47.5°F8.6°C 39.4°F4.1°C 73% 6.0 mph SE9.7 kmh SE 10.0 mph16.1 kmh 30.38 in1028.8 mb 0.00 in0.0 mm 0.00 in0.0 mm 0.00 in0.0 mm
11:14 AM 47.8°F8.8°C 39.6°F4.2°C 73% 6.7 mph SE10.8 kmh SE 11.0 mph17.7 kmh 30.38 in1028.8 mb 0.00 in0.0 mm 0.00 in0.0 mm 0.00 in0.0 mm
11:19 AM 48.4°F9.1°C 40.2°F4.6°C 73% 3.7 mph SSE6.0 kmh SSE 11.0 mph17.7 kmh 30.38 in1028.8 mb 0.00 in0.0 mm 0.00 in0.0 mm 0.00 in0.0 mm
11:24 AM 48.6°F9.2°C 40.4°F4.7°C 73% 3.5 mph SSE5.6 kmh SSE 11.0 mph17.7 kmh 30.39 in1029.1 mb 0.00 in0.0 mm 0.00 in0.0 mm 0.00 in0.0 mm
11:29 AM 48.7°F9.3°C 40.5°F4.7°C 73% 3.1 mph SE5.0 kmh SE 11.0 mph17.7 kmh 30.39 in1029.1 mb 0.00 in0.0 mm 0.00 in0.0 mm 0.00 in0.0 mm
11:34 AM 49.4°F9.7°C 41.2°F5.1°C 73% 3.1 mph E5.0 kmh E 9.0 mph14.5 kmh 30.38 in1028.8 mb 0.00 in0.0 mm 0.00 in0.0 mm 0.00 in0.0 mm
11:39 AM 49.7°F9.8°C 40.7°F4.8°C 71% 2.8 mph SE4.5 kmh SE 9.0 mph14.5 kmh 30.37 in1028.4 mb 0.00 in0.0 mm 0.00 in0.0 mm 0.00 in0.0 mm
11:44 AM 50.4°F10.2°C 41.7°F5.4°C 72% 2.0 mph S3.2 kmh S 8.0 mph12.9 kmh 30.37 in1028.4 mb 0.00 in0.0 mm 0.00 in0.0 mm 0.00 in0.0 mm
11:49 AM 51.4°F10.8°C 42.8°F6.0°C 72% 1.3 mph S2.1 kmh S 6.0 mph9.7 kmh 30.37 in1028.4 mb 0.00 in0.0 mm 0.00 in0.0 mm 0.00 in0.0 mm
11:54 AM 51.8°F11.0°C 42.8°F6.0°C 71% 2.3 mph SSE3.7 kmh SSE 5.0 mph8.0 kmh 30.37 in1028.4 mb 0.00 in0.0 mm 0.00 in0.0 mm 0.00 in0.0 mm
11:59 AM 52.7°F11.5°C 43.7°F6.5°C 71% 3.8 mph SE6.1 kmh SE 8.0 mph12.9 kmh 30.36 in1028.1 mb 0.00 in0.0 mm 0.00 in0.0 mm 0.00 in0.0 mm
12:04 PM 52.6°F11.4°C 43.2°F6.2°C 70% 4.3 mph SSE6.9 kmh SSE 10.0 mph16.1 kmh 30.36 in1028.1 mb 0.00 in0.0 mm 0.00 in0.0 mm 0.00 in0.0 mm
12:09 PM 53.1°F11.7°C 43.9°F6.6°C 71% 2.6 mph SE4.2 kmh SE 10.0 mph16.1 kmh 30.35 in1027.8 mb 0.00 in0.0 mm 0.00 in0.0 mm 0.00 in0.0 mm
12:14 PM 53.6°F12.0°C 44.2°F6.8°C 70% 2.4 mph SW3.9 kmh SW 10.0 mph16.1 kmh 30.35 in1027.8 mb 0.00 in0.0 mm 0.00 in0.0 mm 0.00 in0.0 mm
12:19 PM 54.1°F12.3°C 44.3°F6.8°C 69% 4.3 mph SSE6.9 kmh SSE 8.0 mph12.9 kmh 30.35 in1027.8 mb 0.00 in0.0 mm 0.00 in0.0 mm 0.00 in0.0 mm
12:24 PM 54.0°F12.2°C 44.2°F6.8°C 69% 4.9 mph S7.9 kmh S 11.0 mph17.7 kmh 30.34 in1027.4 mb 0.00 in0.0 mm 0.00 in0.0 mm 0.00 in0.0 mm
12:29 PM 53.9°F12.2°C 44.0°F6.7°C 69% 4.6 mph SSE7.4 kmh SSE 11.0 mph17.7 kmh 30.34 in1027.4 mb 0.00 in0.0 mm 0.00 in0.0 mm 0.00 in0.0 mm
12:34 PM 53.9°F12.2°C 44.1°F6.7°C 69% 4.5 mph SE7.2 kmh SE 11.0 mph17.7 kmh 30.34 in1027.4 mb 0.00 in0.0 mm 0.00 in0.0 mm 0.00 in0.0 mm
12:39 PM 54.1°F12.3°C 44.6°F7.0°C 70% 1.6 mph SE2.6 kmh SE 10.0 mph16.1 kmh 30.34 in1027.4 mb 0.00 in0.0 mm 0.00 in0.0 mm 0.00 in0.0 mm
12:44 PM 54.3°F12.4°C 44.5°F6.9°C 69% 2.9 mph SW4.7 kmh SW 10.0 mph16.1 kmh 30.34 in1027.4 mb 0.00 in0.0 mm 0.00 in0.0 mm 0.00 in0.0 mm
12:49 PM 54.6°F12.6°C 44.8°F7.1°C 69% 2.5 mph SSW4.0 kmh SSW 7.0 mph11.3 kmh 30.34 in1027.4 mb 0.00 in0.0 mm 0.00 in0.0 mm 0.00 in0.0 mm
12:54 PM 54.6°F12.6°C 44.8°F7.1°C 69% 1.6 mph SW2.6 kmh SW 6.0 mph9.7 kmh 30.33 in1027.1 mb 0.00 in0.0 mm 0.00 in0.0 mm 0.00 in0.0 mm
12:59 PM 55.0°F12.8°C 45.1°F7.3°C 69% 1.8 mph SE2.9 kmh SE 6.0 mph9.7 kmh 30.33 in1027.1 mb 0.00 in0.0 mm 0.00 in0.0 mm 0.00 in0.0 mm
01:04 PM 55.4°F13.0°C 45.4°F7.4°C 69% 2.3 mph SSW3.7 kmh SSW 6.0 mph9.7 kmh 30.32 in1026.8 mb 0.00 in0.0 mm 0.00 in0.0 mm 0.00 in0.0 mm
01:09 PM 55.8°F13.2°C 45.8°F7.7°C 69% 4.7 mph SSE7.6 kmh SSE 11.0 mph17.7 kmh 30.32 in1026.8 mb 0.00 in0.0 mm 0.00 in0.0 mm 0.00 in0.0 mm
01:14 PM 55.8°F13.2°C 45.8°F7.7°C 69% 4.7 mph S7.6 kmh S 11.0 mph17.7 kmh 30.32 in1026.8 mb 0.00 in0.0 mm 0.00 in0.0 mm 0.00 in0.0 mm
01:19 PM 55.9°F13.3°C 45.9°F7.7°C 69% 2.7 mph SSE4.3 kmh SSE 11.0 mph17.7 kmh 30.31 in1026.4 mb 0.00 in0.0 mm 0.00 in0.0 mm 0.00 in0.0 mm
01:24 PM 56.1°F13.4°C 45.7°F7.6°C 68% 3.8 mph S6.1 kmh S 11.0 mph17.7 kmh 30.31 in1026.4 mb 0.00 in0.0 mm 0.00 in0.0 mm 0.00 in0.0 mm
01:29 PM 56.1°F13.4°C 46.1°F7.8°C 69% 1.9 mph SW3.1 kmh SW 9.0 mph14.5 kmh 30.30 in1026.1 mb 0.00 in0.0 mm 0.00 in0.0 mm 0.00 in0.0 mm
01:34 PM 56.3°F13.5°C 46.3°F7.9°C 69% 2.7 mph SW4.3 kmh SW 8.0 mph12.9 kmh 30.30 in1026.1 mb 0.00 in0.0 mm 0.00 in0.0 mm 0.00 in0.0 mm
01:39 PM 56.6°F13.7°C 46.5°F8.1°C 69% 3.6 mph SSW5.8 kmh SSW 8.0 mph12.9 kmh 30.30 in1026.1 mb 0.00 in0.0 mm 0.00 in0.0 mm 0.00 in0.0 mm
01:44 PM 57.1°F13.9°C 47.2°F8.4°C 69% 2.8 mph S4.5 kmh S 8.0 mph12.9 kmh 30.29 in1025.7 mb 0.00 in0.0 mm 0.00 in0.0 mm 0.00 in0.0 mm
01:49 PM 57.4°F14.1°C 47.4°F8.6°C 69% 3.0 mph S4.8 kmh S 8.0 mph12.9 kmh 30.29 in1025.7 mb 0.00 in0.0 mm 0.00 in0.0 mm 0.00 in0.0 mm
01:54 PM 57.8°F14.3°C 47.8°F8.8°C 69% 2.8 mph SSW4.5 kmh SSW 8.0 mph12.9 kmh 30.28 in1025.4 mb 0.00 in0.0 mm 0.00 in0.0 mm 0.00 in0.0 mm
01:59 PM 58.6°F14.8°C 48.5°F9.2°C 69% 1.8 mph SSW2.9 kmh SSW 8.0 mph12.9 kmh 30.28 in1025.4 mb 0.00 in0.0 mm 0.00 in0.0 mm 0.00 in0.0 mm
02:04 PM 58.7°F14.8°C 48.3°F9.1°C 68% 4.0 mph WSW6.4 kmh WSW 8.0 mph12.9 kmh 30.28 in1025.4 mb 0.00 in0.0 mm 0.00 in0.0 mm 0.00 in0.0 mm
02:09 PM 58.8°F14.9°C 48.4°F9.1°C 68% 2.1 mph S3.4 kmh S 8.0 mph12.9 kmh 30.27 in1025.1 mb 0.00 in0.0 mm 0.00 in0.0 mm 0.00 in0.0 mm
02:14 PM 58.9°F14.9°C 48.5°F9.2°C 68% 5.2 mph SW8.4 kmh SW 11.0 mph17.7 kmh 30.27 in1025.1 mb 0.00 in0.0 mm 0.00 in0.0 mm 0.00 in0.0 mm
02:19 PM 58.9°F14.9°C 48.4°F9.1°C 68% 7.1 mph SW11.4 kmh SW 15.0 mph24.1 kmh 30.27 in1025.1 mb 0.00 in0.0 mm 0.00 in0.0 mm 0.00 in0.0 mm
02:24 PM 58.9°F14.9°C 48.9°F9.4°C 69% 5.1 mph SSW8.2 kmh SSW 15.0 mph24.1 kmh 30.26 in1024.7 mb 0.00 in0.0 mm 0.00 in0.0 mm 0.00 in0.0 mm
02:29 PM 58.8°F14.9°C 49.2°F9.6°C 70% 5.5 mph SSW8.9 kmh SSW 15.0 mph24.1 kmh 30.26 in1024.7 mb 0.00 in0.0 mm 0.00 in0.0 mm 0.00 in0.0 mm
02:34 PM 58.7°F14.8°C 49.1°F9.5°C 70% 4.6 mph SW7.4 kmh SW 15.0 mph24.1 kmh 30.26 in1024.7 mb 0.00 in0.0 mm 0.00 in0.0 mm 0.00 in0.0 mm
02:39 PM 58.7°F14.8°C 49.4°F9.7°C 71% 6.7 mph SW10.8 kmh SW 13.0 mph20.9 kmh 30.27 in1025.1 mb 0.00 in0.0 mm 0.00 in0.0 mm 0.00 in0.0 mm
02:44 PM 58.6°F14.8°C 49.4°F9.7°C 71% 4.3 mph SW6.9 kmh SW 12.0 mph19.3 kmh 30.26 in1024.7 mb 0.00 in0.0 mm 0.00 in0.0 mm 0.00 in0.0 mm
02:49 PM 58.3°F14.6°C 49.7°F9.8°C 73% 3.2 mph S5.1 kmh S 12.0 mph19.3 kmh 30.25 in1024.4 mb 0.00 in0.0 mm 0.00 in0.0 mm 0.00 in0.0 mm
02:54 PM 57.9°F14.4°C 50.0°F10.0°C 75% 2.3 mph SSE3.7 kmh SSE 12.0 mph19.3 kmh 30.25 in1024.4 mb 0.00 in0.0 mm 0.00 in0.0 mm 0.00 in0.0 mm
02:59 PM 57.6°F14.2°C 50.1°F10.1°C 76% 2.6 mph S4.2 kmh S 11.0 mph17.7 kmh 30.25 in1024.4 mb 0.00 in0.0 mm 0.00 in0.0 mm 0.00 in0.0 mm
03:04 PM 57.6°F14.2°C 50.2°F10.1°C 76% 2.9 mph SW4.7 kmh SW 11.0 mph17.7 kmh 30.25 in1024.4 mb 0.00 in0.0 mm 0.00 in0.0 mm 0.00 in0.0 mm
03:09 PM 57.7°F14.3°C 50.3°F10.2°C 76% 2.8 mph SSW4.5 kmh SSW 13.0 mph20.9 kmh 30.25 in1024.4 mb 0.00 in0.0 mm 0.00 in0.0 mm 0.00 in0.0 mm
03:14 PM 57.8°F14.3°C 50.0°F10.0°C 75% 4.0 mph SSE6.4 kmh SSE 13.0 mph20.9 kmh 30.24 in1024.0 mb 0.00 in0.0 mm 0.00 in0.0 mm 0.00 in0.0 mm
03:19 PM 58.0°F14.4°C 50.6°F10.3°C 76% 1.9 mph S3.1 kmh S 13.0 mph20.9 kmh 30.24 in1024.0 mb 0.00 in0.0 mm 0.00 in0.0 mm 0.00 in0.0 mm
03:24 PM 58.2°F14.6°C 50.1°F10.1°C 74% 3.1 mph S5.0 kmh S 13.0 mph20.9 kmh 30.23 in1023.7 mb 0.00 in0.0 mm 0.00 in0.0 mm 0.00 in0.0 mm
03:29 PM 58.3°F14.6°C 50.2°F10.1°C 74% 2.3 mph SSW3.7 kmh SSW 8.0 mph12.9 kmh 30.24 in1024.0 mb 0.00 in0.0 mm 0.00 in0.0 mm 0.00 in0.0 mm
03:34 PM 58.5°F14.7°C 50.3°F10.2°C 74% 5.5 mph SW8.9 kmh SW 11.0 mph17.7 kmh 30.25 in1024.4 mb 0.00 in0.0 mm 0.00 in0.0 mm 0.00 in0.0 mm
03:39 PM 58.6°F14.8°C 50.4°F10.2°C 74% 3.7 mph SSW6.0 kmh SSW 11.0 mph17.7 kmh 30.24 in1024.0 mb 0.00 in0.0 mm 0.00 in0.0 mm 0.00 in0.0 mm
03:44 PM 58.7°F14.8°C 50.5°F10.3°C 74% 5.1 mph SSW8.2 kmh SSW 11.0 mph17.7 kmh 30.23 in1023.7 mb 0.00 in0.0 mm 0.00 in0.0 mm 0.00 in0.0 mm
03:49 PM 58.7°F14.8°C 50.5°F10.3°C 74% 5.6 mph S9.0 kmh S 14.0 mph22.5 kmh 30.23 in1023.7 mb 0.00 in0.0 mm 0.00 in0.0 mm 0.00 in0.0 mm
03:54 PM 58.7°F14.8°C 50.5°F10.3°C 74% 5.9 mph S9.5 kmh S 14.0 mph22.5 kmh 30.22 in1023.4 mb 0.00 in0.0 mm 0.00 in0.0 mm 0.00 in0.0 mm
03:59 PM 58.6°F14.8°C 50.8°F10.4°C 75% 6.3 mph S10.1 kmh S 14.0 mph22.5 kmh 30.22 in1023.4 mb 0.00 in0.0 mm 0.00 in0.0 mm 0.00 in0.0 mm
04:03 PM 58.5°F14.7°C 50.7°F10.4°C 75% 5.9 mph S9.5 kmh S 14.0 mph22.5 kmh 30.21 in1023.0 mb 0.00 in0.0 mm 0.00 in0.0 mm 0.00 in0.0 mm
04:08 PM 58.1°F14.5°C 50.7°F10.4°C 76% 8.4 mph S13.5 kmh S 18.0 mph29.0 kmh 30.20 in1022.7 mb 0.00 in0.0 mm 0.00 in0.0 mm 0.00 in0.0 mm
04:13 PM 57.6°F14.2°C 50.9°F10.5°C 78% 5.9 mph S9.5 kmh S 18.0 mph29.0 kmh 30.19 in1022.4 mb 0.00 in0.0 mm 0.00 in0.0 mm 0.00 in0.0 mm
04:18 PM 57.3°F14.1°C 51.2°F10.7°C 80% 7.8 mph S12.6 kmh S 18.0 mph29.0 kmh 30.19 in1022.4 mb 0.00 in0.0 mm 0.00 in0.0 mm 0.00 in0.0 mm
04:23 PM 56.9°F13.8°C 51.5°F10.8°C 82% 4.6 mph S7.4 kmh S 18.0 mph29.0 kmh 30.19 in1022.4 mb 0.00 in0.0 mm 0.00 in0.0 mm 0.00 in0.0 mm
04:28 PM 56.6°F13.7°C 51.5°F10.8°C 83% 4.4 mph S7.1 kmh S 15.0 mph24.1 kmh 30.18 in1022.0 mb 0.00 in0.0 mm 0.00 in0.0 mm 0.00 in0.0 mm
04:33 PM 56.3°F13.5°C 51.5°F10.8°C 84% 6.1 mph S9.8 kmh S 15.0 mph24.1 kmh 30.17 in1021.7 mb 0.00 in0.0 mm 0.00 in0.0 mm 0.00 in0.0 mm
04:38 PM 56.2°F13.4°C 51.7°F10.9°C 85% 3.5 mph S5.6 kmh S 15.0 mph24.1 kmh 30.17 in1021.7 mb 0.00 in0.0 mm 0.00 in0.0 mm 0.00 in0.0 mm
04:43 PM 56.1°F13.4°C 51.7°F10.9°C 85% 5.1 mph SSW8.2 kmh SSW 15.0 mph24.1 kmh 30.19 in1022.4 mb 0.00 in0.0 mm 0.00 in0.0 mm 0.00 in0.0 mm
04:48 PM 56.1°F13.4°C 51.7°F10.9°C 85% 2.1 mph SSW3.4 kmh SSW 11.0 mph17.7 kmh 30.20 in1022.7 mb 0.00 in0.0 mm 0.00 in0.0 mm 0.00 in0.0 mm
04:53 PM 56.2°F13.4°C 51.8°F11.0°C 85% 3.4 mph SSW5.5 kmh SSW 9.0 mph14.5 kmh 30.20 in1022.7 mb 0.00 in0.0 mm 0.00 in0.0 mm 0.00 in0.0 mm
04:58 PM 56.2°F13.4°C 51.8°F11.0°C 85% 2.7 mph SW4.3 kmh SW 9.0 mph14.5 kmh 30.19 in1022.4 mb 0.00 in0.0 mm 0.00 in0.0 mm 0.00 in0.0 mm
05:03 PM 56.2°F13.4°C 52.1°F11.2°C 86% 1.6 mph SSW2.6 kmh SSW 9.0 mph14.5 kmh 30.19 in1022.4 mb 0.00 in0.0 mm 0.00 in0.0 mm 0.00 in0.0 mm
05:08 PM 56.2°F13.4°C 52.1°F11.2°C 86% Calm Calm 9.0 mph14.5 kmh 30.19 in1022.4 mb 0.00 in0.0 mm 0.00 in0.0 mm 0.00 in0.0 mm
05:13 PM 56.2°F13.4°C 52.1°F11.2°C 86% 1.2 mph SW1.9 kmh SW 7.0 mph11.3 kmh 30.19 in1022.4 mb 0.00 in0.0 mm 0.00 in0.0 mm 0.00 in0.0 mm
05:18 PM 56.3°F13.5°C 52.2°F11.2°C 86% 1.0 mph SW1.6 kmh SW 7.0 mph11.3 kmh 30.19 in1022.4 mb 0.00 in0.0 mm 0.00 in0.0 mm 0.00 in0.0 mm
05:23 PM 56.3°F13.5°C 52.2°F11.2°C 86% 1.1 mph SE1.8 kmh SE 7.0 mph11.3 kmh 30.19 in1022.4 mb 0.00 in0.0 mm 0.00 in0.0 mm 0.00 in0.0 mm
05:28 PM 56.3°F13.5°C 52.2°F11.2°C 86% Calm Calm 7.0 mph11.3 kmh 30.20 in1022.7 mb 0.00 in0.0 mm 0.00 in0.0 mm 0.00 in0.0 mm
05:33 PM 56.4°F13.6°C 52.3°F11.3°C 86% 1.6 mph WSW2.6 kmh WSW 3.0 mph4.8 kmh 30.20 in1022.7 mb 0.00 in0.0 mm 0.00 in0.0 mm 0.00 in0.0 mm
05:38 PM 56.4°F13.6°C 52.3°F11.3°C 86% 1.7 mph SW2.7 kmh SW 3.0 mph4.8 kmh 30.20 in1022.7 mb 0.00 in0.0 mm 0.00 in0.0 mm 0.00 in0.0 mm
05:43 PM 56.3°F13.5°C 52.2°F11.2°C 86% 1.6 mph WSW2.6 kmh WSW 3.0 mph4.8 kmh 30.20 in1022.7 mb 0.00 in0.0 mm 0.00 in0.0 mm 0.00 in0.0 mm
05:48 PM 56.4°F13.6°C 52.6°F11.4°C 87% 3.0 mph SW4.8 kmh SW 6.0 mph9.7 kmh 30.19 in1022.4 mb 0.00 in0.0 mm 0.00 in0.0 mm 0.00 in0.0 mm
05:53 PM 56.3°F13.5°C 52.5°F11.4°C 87% 1.7 mph S2.7 kmh S 6.0 mph9.7 kmh 30.17 in1021.7 mb 0.00 in0.0 mm 0.00 in0.0 mm 0.00 in0.0 mm
05:58 PM 56.2°F13.4°C 52.4°F11.3°C 87% 2.4 mph WSW3.9 kmh WSW 6.0 mph9.7 kmh 30.18 in1022.0 mb 0.00 in0.0 mm 0.00 in0.0 mm 0.00 in0.0 mm
06:03 PM 56.1°F13.4°C 52.6°F11.4°C 88% 1.7 mph SW2.7 kmh SW 6.0 mph9.7 kmh 30.18 in1022.0 mb 0.00 in0.0 mm 0.00 in0.0 mm 0.00 in0.0 mm
06:08 PM 56.0°F13.3°C 52.5°F11.4°C 88% 1.3 mph S2.1 kmh S 6.0 mph9.7 kmh 30.17 in1021.7 mb 0.00 in0.0 mm 0.00 in0.0 mm 0.00 in0.0 mm
06:13 PM 55.8°F13.2°C 52.6°F11.4°C 89% 2.4 mph SW3.9 kmh SW 4.0 mph6.4 kmh 30.18 in1022.0 mb 0.00 in0.0 mm 0.00 in0.0 mm 0.00 in0.0 mm
06:18 PM 55.7°F13.2°C 52.5°F11.4°C 89% 2.7 mph SW4.3 kmh SW 4.0 mph6.4 kmh 30.17 in1021.7 mb 0.00 in0.0 mm 0.00 in0.0 mm 0.00 in0.0 mm
06:23 PM 55.6°F13.1°C 52.7°F11.5°C 90% 1.7 mph SW2.7 kmh SW 4.0 mph6.4 kmh 30.17 in1021.7 mb 0.00 in0.0 mm 0.00 in0.0 mm 0.00 in0.0 mm
06:28 PM 55.6°F13.1°C 52.7°F11.5°C 90% 1.6 mph SW2.6 kmh SW 4.0 mph6.4 kmh 30.17 in1021.7 mb 0.00 in0.0 mm 0.00 in0.0 mm 0.00 in0.0 mm
06:33 PM 55.6°F13.1°C 52.7°F11.5°C 90% 1.6 mph SW2.6 kmh SW 4.0 mph6.4 kmh 30.17 in1021.7 mb 0.00 in0.0 mm 0.00 in0.0 mm 0.00 in0.0 mm
06:38 PM 55.5°F13.1°C 52.6°F11.4°C 90% 1.8 mph SSW2.9 kmh SSW 4.0 mph6.4 kmh 30.17 in1021.7 mb 0.00 in0.0 mm 0.00 in0.0 mm 0.00 in0.0 mm
06:43 PM 55.4°F13.0°C 52.5°F11.4°C 90% 1.5 mph SW2.4 kmh SW 4.0 mph6.4 kmh 30.17 in1021.7 mb 0.00 in0.0 mm 0.00 in0.0 mm 0.00 in0.0 mm
06:48 PM 55.3°F12.9°C 52.4°F11.3°C 90% 1.9 mph SSE3.1 kmh SSE 4.0 mph6.4 kmh 30.17 in1021.7 mb 0.00 in0.0 mm 0.00 in0.0 mm 0.00 in0.0 mm
06:53 PM 55.3°F12.9°C 52.7°F11.5°C 91% 1.6 mph SW2.6 kmh SW 4.0 mph6.4 kmh 30.16 in1021.3 mb 0.00 in0.0 mm 0.00 in0.0 mm 0.00 in0.0 mm
06:58 PM 55.2°F12.9°C 52.6°F11.4°C 91% 1.3 mph S2.1 kmh S 3.0 mph4.8 kmh 30.17 in1021.7 mb 0.00 in0.0 mm 0.00 in0.0 mm 0.00 in0.0 mm
07:03 PM 55.1°F12.8°C 52.5°F11.4°C 91% 1.0 mph WSW1.6 kmh WSW 3.0 mph4.8 kmh 30.17 in1021.7 mb 0.00 in0.0 mm 0.00 in0.0 mm 0.00 in0.0 mm
07:08 PM 55.1°F12.8°C 52.5°F11.4°C 91% Calm Calm 3.0 mph4.8 kmh 30.17 in1021.7 mb 0.00 in0.0 mm 0.00 in0.0 mm 0.00 in0.0 mm
07:13 PM 55.1°F12.8°C 52.5°F11.4°C 91% Calm Calm 3.0 mph4.8 kmh 30.17 in1021.7 mb 0.00 in0.0 mm 0.00 in0.0 mm 0.00 in0.0 mm
07:18 PM 55.0°F12.8°C 52.4°F11.3°C 91% 1.0 mph SW1.6 kmh SW 3.0 mph4.8 kmh 30.16 in1021.3 mb 0.00 in0.0 mm 0.00 in0.0 mm 0.00 in0.0 mm
07:23 PM 55.1°F12.8°C 52.5°F11.4°C 91% 1.1 mph SSW1.8 kmh SSW 2.0 mph3.2 kmh 30.16 in1021.3 mb 0.00 in0.0 mm 0.00 in0.0 mm 0.00 in0.0 mm
07:28 PM 55.1°F12.8°C 52.8°F11.6°C 92% 1.4 mph SSW2.3 kmh SSW 2.0 mph3.2 kmh 30.16 in1021.3 mb 0.00 in0.0 mm 0.00 in0.0 mm 0.00 in0.0 mm
07:33 PM 55.1°F12.8°C 52.8°F11.6°C 92% 2.1 mph SW3.4 kmh SW 4.0 mph6.4 kmh 30.17 in1021.7 mb 0.00 in0.0 mm 0.00 in0.0 mm 0.00 in0.0 mm
07:38 PM 55.1°F12.8°C 52.8°F11.6°C 92% 2.8 mph SW4.5 kmh SW 5.0 mph8.0 kmh 30.17 in1021.7 mb 0.00 in0.0 mm 0.00 in0.0 mm 0.00 in0.0 mm
07:43 PM 55.1°F12.8°C 52.8°F11.6°C 92% 1.5 mph SW2.4 kmh SW 5.0 mph8.0 kmh 30.17 in1021.7 mb 0.00 in0.0 mm 0.00 in0.0 mm 0.00 in0.0 mm
07:48 PM 55.1°F12.8°C 53.1°F11.7°C 93% 2.5 mph SW4.0 kmh SW 6.0 mph9.7 kmh 30.17 in1021.7 mb 0.00 in0.0 mm 0.00 in0.0 mm 0.00 in0.0 mm
07:53 PM 55.1°F12.8°C 53.1°F11.7°C 93% 2.0 mph SW3.2 kmh SW 6.0 mph9.7 kmh 30.17 in1021.7 mb 0.00 in0.0 mm 0.00 in0.0 mm 0.00 in0.0 mm
07:58 PM 54.9°F12.7°C 52.9°F11.6°C 93% 1.6 mph SW2.6 kmh SW 6.0 mph9.7 kmh 30.16 in1021.3 mb 0.00 in0.0 mm 0.00 in0.0 mm 0.00 in0.0 mm
08:03 PM 54.9°F12.7°C 52.9°F11.6°C 93% 2.3 mph SW3.7 kmh SW 6.0 mph9.7 kmh 30.16 in1021.3 mb 0.00 in0.0 mm 0.00 in0.0 mm 0.00 in0.0 mm
08:08 PM 54.8°F12.7°C 53.1°F11.7°C 94% 1.9 mph SSW3.1 kmh SSW 5.0 mph8.0 kmh 30.15 in1021.0 mb 0.00 in0.0 mm 0.00 in0.0 mm 0.00 in0.0 mm
08:13 PM 54.8°F12.7°C 53.1°F11.7°C 94% 2.3 mph SW3.7 kmh SW 5.0 mph8.0 kmh 30.15 in1021.0 mb 0.00 in0.0 mm 0.00 in0.0 mm 0.00 in0.0 mm
08:18 PM 54.9°F12.7°C 53.2°F11.8°C 94% 2.7 mph WSW4.3 kmh WSW 7.0 mph11.3 kmh 30.15 in1021.0 mb 0.00 in0.0 mm 0.00 in0.0 mm 0.00 in0.0 mm
08:23 PM 55.1°F12.8°C 53.7°F12.1°C 95% 3.4 mph SW5.5 kmh SW 8.0 mph12.9 kmh 30.15 in1021.0 mb 0.00 in0.0 mm 0.00 in0.0 mm 0.00 in0.0 mm
08:28 PM 55.2°F12.9°C 53.8°F12.1°C 95% 4.0 mph SW6.4 kmh SW 8.0 mph12.9 kmh 30.15 in1021.0 mb 0.00 in0.0 mm 0.00 in0.0 mm 0.00 in0.0 mm
08:33 PM 55.3°F12.9°C 53.9°F12.2°C 95% 3.4 mph SW5.5 kmh SW 8.0 mph12.9 kmh 30.15 in1021.0 mb 0.00 in0.0 mm 0.00 in0.0 mm 0.00 in0.0 mm
08:38 PM 55.4°F13.0°C 54.0°F12.2°C 95% 3.3 mph SW5.3 kmh SW 8.0 mph12.9 kmh 30.15 in1021.0 mb 0.00 in0.0 mm 0.00 in0.0 mm 0.00 in0.0 mm
08:43 PM 55.4°F13.0°C 54.0°F12.2°C 95% 3.6 mph SSW5.8 kmh SSW 9.0 mph14.5 kmh 30.14 in1020.7 mb 0.00 in0.0 mm 0.00 in0.0 mm 0.00 in0.0 mm
08:48 PM 55.4°F13.0°C 54.0°F12.2°C 95% 3.0 mph SW4.8 kmh SW 9.0 mph14.5 kmh 30.14 in1020.7 mb 0.00 in0.0 mm 0.00 in0.0 mm 0.00 in0.0 mm
08:53 PM 55.5°F13.1°C 54.1°F12.3°C 95% 3.3 mph SSW5.3 kmh SSW 9.0 mph14.5 kmh 30.14 in1020.7 mb 0.00 in0.0 mm 0.00 in0.0 mm 0.00 in0.0 mm
08:58 PM 55.5°F13.1°C 54.1°F12.3°C 95% 2.5 mph SW4.0 kmh SW 9.0 mph14.5 kmh 30.14 in1020.7 mb 0.00 in0.0 mm 0.00 in0.0 mm 0.00 in0.0 mm
09:02 PM 55.5°F13.1°C 54.1°F12.3°C 95% 3.2 mph SW5.1 kmh SW 8.0 mph12.9 kmh 30.14 in1020.7 mb 0.00 in0.0 mm 0.00 in0.0 mm 0.00 in0.0 mm
09:07 PM 55.6°F13.1°C 54.2°F12.3°C 95% 3.0 mph SW4.8 kmh SW 8.0 mph12.9 kmh 30.14 in1020.7 mb 0.00 in0.0 mm 0.00 in0.0 mm 0.00 in0.0 mm
09:12 PM 55.7°F13.2°C 54.3°F12.4°C 95% 3.5 mph SW5.6 kmh SW 9.0 mph14.5 kmh 30.14 in1020.7 mb 0.00 in0.0 mm 0.00 in0.0 mm 0.00 in0.0 mm
09:17 PM 55.7°F13.2°C 54.3°F12.4°C 95% 3.8 mph SW6.1 kmh SW 9.0 mph14.5 kmh 30.14 in1020.7 mb 0.00 in0.0 mm 0.00 in0.0 mm 0.00 in0.0 mm
09:22 PM 55.8°F13.2°C 54.4°F12.4°C 95% 4.1 mph SW6.6 kmh SW 11.0 mph17.7 kmh 30.13 in1020.3 mb 0.01 in0.3 mm 0.12 in3.0 mm 0.01 in0.3 mm
09:27 PM 55.9°F13.3°C 54.5°F12.5°C 95% 5.7 mph SW9.2 kmh SW 11.0 mph17.7 kmh 30.13 in1020.3 mb 0.01 in0.3 mm 0.00 in0.0 mm 0.01 in0.3 mm
09:32 PM 55.9°F13.3°C 54.5°F12.5°C 95% 3.9 mph SW6.3 kmh SW 11.0 mph17.7 kmh 30.13 in1020.3 mb 0.01 in0.3 mm 0.00 in0.0 mm 0.01 in0.3 mm
09:37 PM 55.9°F13.3°C 54.5°F12.5°C 95% 3.1 mph SSW5.0 kmh SSW 11.0 mph17.7 kmh 30.13 in1020.3 mb 0.01 in0.3 mm 0.00 in0.0 mm 0.01 in0.3 mm
09:42 PM 56.0°F13.3°C 54.8°F12.7°C 96% 2.4 mph SW3.9 kmh SW 10.0 mph16.1 kmh 30.13 in1020.3 mb 0.01 in0.3 mm 0.00 in0.0 mm 0.01 in0.3 mm
09:47 PM 56.1°F13.4°C 54.9°F12.7°C 96% 4.1 mph SW6.6 kmh SW 13.0 mph20.9 kmh 30.12 in1020.0 mb 0.01 in0.3 mm 0.00 in0.0 mm 0.01 in0.3 mm
09:52 PM 56.2°F13.4°C 55.0°F12.8°C 96% 3.9 mph SSW6.3 kmh SSW 13.0 mph20.9 kmh 30.12 in1020.0 mb 0.01 in0.3 mm 0.00 in0.0 mm 0.01 in0.3 mm
09:57 PM 56.3°F13.5°C 55.1°F12.8°C 96% 3.2 mph SW5.1 kmh SW 13.0 mph20.9 kmh 30.12 in1020.0 mb 0.01 in0.3 mm 0.00 in0.0 mm 0.01 in0.3 mm
10:02 PM 56.4°F13.6°C 55.2°F12.9°C 96% 4.0 mph SW6.4 kmh SW 13.0 mph20.9 kmh 30.12 in1020.0 mb 0.01 in0.3 mm 0.00 in0.0 mm 0.01 in0.3 mm
10:07 PM 56.4°F13.6°C 55.3°F12.9°C 96% 5.1 mph SW8.2 kmh SW 12.0 mph19.3 kmh 30.12 in1020.0 mb 0.01 in0.3 mm 0.00 in0.0 mm 0.01 in0.3 mm
10:12 PM 56.5°F13.6°C 55.3°F12.9°C 96% 7.0 mph SW11.3 kmh SW 12.0 mph19.3 kmh 30.12 in1020.0 mb 0.01 in0.3 mm 0.00 in0.0 mm 0.01 in0.3 mm
10:17 PM 56.6°F13.7°C 55.4°F13.0°C 96% 4.2 mph SW6.8 kmh SW 12.0 mph19.3 kmh 30.12 in1020.0 mb 0.01 in0.3 mm 0.00 in0.0 mm 0.01 in0.3 mm
10:22 PM 56.7°F13.7°C 55.5°F13.1°C 96% 5.4 mph SW8.7 kmh SW 12.0 mph19.3 kmh 30.11 in1019.6 mb 0.00 in0.0 mm 0.00 in0.0 mm 0.01 in0.3 mm
10:27 PM 56.9°F13.8°C 55.7°F13.2°C 96% 6.1 mph SSW9.8 kmh SSW 13.0 mph20.9 kmh 30.11 in1019.6 mb 0.00 in0.0 mm 0.00 in0.0 mm 0.01 in0.3 mm
10:32 PM 57.0°F13.9°C 55.8°F13.2°C 96% 5.9 mph SW9.5 kmh SW 15.0 mph24.1 kmh 30.11 in1019.6 mb 0.00 in0.0 mm 0.00 in0.0 mm 0.01 in0.3 mm
10:37 PM 57.1°F13.9°C 56.0°F13.3°C 96% 7.1 mph SW11.4 kmh SW 15.0 mph24.1 kmh 30.11 in1019.6 mb 0.00 in0.0 mm 0.00 in0.0 mm 0.01 in0.3 mm
10:42 PM 57.2°F14.0°C 56.0°F13.3°C 96% 6.5 mph SW10.5 kmh SW 15.0 mph24.1 kmh 30.11 in1019.6 mb 0.00 in0.0 mm 0.00 in0.0 mm 0.01 in0.3 mm
10:47 PM 57.4°F14.1°C 56.2°F13.4°C 96% 3.9 mph SW6.3 kmh SW 15.0 mph24.1 kmh 30.11 in1019.6 mb 0.00 in0.0 mm 0.00 in0.0 mm 0.01 in0.3 mm
10:52 PM 57.5°F14.2°C 56.3°F13.5°C 96% 6.8 mph SW10.9 kmh SW 15.0 mph24.1 kmh 30.11 in1019.6 mb 0.00 in0.0 mm 0.00 in0.0 mm 0.01 in0.3 mm
10:57 PM 57.7°F14.3°C 56.5°F13.6°C 96% 4.6 mph SW7.4 kmh SW 12.0 mph19.3 kmh 30.11 in1019.6 mb 0.00 in0.0 mm 0.00 in0.0 mm 0.01 in0.3 mm
11:02 PM 57.8°F14.3°C 56.6°F13.7°C 96% 5.2 mph SW8.4 kmh SW 12.0 mph19.3 kmh 30.11 in1019.6 mb 0.00 in0.0 mm 0.00 in0.0 mm 0.01 in0.3 mm
11:08 PM 57.9°F14.4°C 56.5°F13.6°C 95% 5.4 mph SW8.7 kmh SW 12.0 mph19.3 kmh 30.10 in1019.3 mb 0.00 in0.0 mm 0.00 in0.0 mm 0.01 in0.3 mm
11:13 PM 58.0°F14.4°C 56.6°F13.7°C 95% 3.8 mph SW6.1 kmh SW 12.0 mph19.3 kmh 30.10 in1019.3 mb 0.00 in0.0 mm 0.00 in0.0 mm 0.01 in0.3 mm
11:18 PM 58.1°F14.5°C 56.7°F13.7°C 95% 5.6 mph SW9.0 kmh SW 12.0 mph19.3 kmh 30.10 in1019.3 mb 0.00 in0.0 mm 0.00 in0.0 mm 0.01 in0.3 mm
11:23 PM 58.3°F14.6°C 56.9°F13.8°C 95% 4.2 mph SW6.8 kmh SW 12.0 mph19.3 kmh 30.10 in1019.3 mb 0.00 in0.0 mm 0.00 in0.0 mm 0.01 in0.3 mm
11:28 PM 58.4°F14.7°C 57.0°F13.9°C 95% 4.2 mph SSW6.8 kmh SSW 11.0 mph17.7 kmh 30.10 in1019.3 mb 0.00 in0.0 mm 0.00 in0.0 mm 0.01 in0.3 mm
11:32 PM 58.4°F14.7°C 57.0°F13.9°C 95% 5.6 mph SW9.0 kmh SW 11.0 mph17.7 kmh 30.09 in1019.0 mb 0.00 in0.0 mm 0.00 in0.0 mm 0.01 in0.3 mm
11:38 PM 58.5°F14.7°C 57.1°F13.9°C 95% 5.4 mph SW8.7 kmh SW 11.0 mph17.7 kmh 30.09 in1019.0 mb 0.00 in0.0 mm 0.00 in0.0 mm 0.01 in0.3 mm
11:43 PM 58.5°F14.7°C 57.0°F13.9°C 95% 4.9 mph SW7.9 kmh SW 11.0 mph17.7 kmh 30.09 in1019.0 mb 0.00 in0.0 mm 0.00 in0.0 mm 0.01 in0.3 mm
11:48 PM 58.5°F14.7°C 57.0°F13.9°C 95% 4.1 mph SW6.6 kmh SW 11.0 mph17.7 kmh 30.09 in1019.0 mb 0.00 in0.0 mm 0.00 in0.0 mm 0.01 in0.3 mm
11:53 PM 58.5°F14.7°C 57.0°F13.9°C 95% 5.0 mph SW8.0 kmh SW 13.0 mph20.9 kmh 30.09 in1019.0 mb 0.00 in0.0 mm 0.00 in0.0 mm 0.01 in0.3 mm
11:58 PM 58.6°F14.8°C 57.1°F13.9°C 95% 5.5 mph SW8.9 kmh SW 13.0 mph20.9 kmh 30.09 in1019.0 mb 0.00 in0.0 mm 0.00 in0.0 mm 0.01 in0.3 mm